createdAt,value
2022-09-10T00:07:40.061Z,15.57
2022-09-10T00:18:01.549Z,15.60
2022-09-10T00:28:25.534Z,15.59
2022-09-10T00:38:47.523Z,15.37
2022-09-10T00:49:14.621Z,15.40
2022-09-10T00:59:36.322Z,15.48
2022-09-10T01:09:59.965Z,15.45
2022-09-10T01:20:30.483Z,15.52
2022-09-10T01:30:58.049Z,15.37
2022-09-10T01:41:24.087Z,15.42
2022-09-10T01:52:15.177Z,15.47
2022-09-10T02:02:40.819Z,15.56
2022-09-10T02:13:02.273Z,15.53
2022-09-10T02:23:33.182Z,15.49
2022-09-10T02:33:54.711Z,15.56
2022-09-10T02:44:16.578Z,15.64
2022-09-10T02:54:38.297Z,15.60
2022-09-10T03:04:59.770Z,15.59
2022-09-10T03:15:22.862Z,15.53
2022-09-10T03:25:49.078Z,15.60
2022-09-10T03:36:13.300Z,15.53
2022-09-10T03:46:34.764Z,15.55
2022-09-10T03:56:56.094Z,15.66
2022-09-10T04:07:17.558Z,15.60
2022-09-10T04:17:38.905Z,15.64
2022-09-10T04:28:01.870Z,15.62
2022-09-10T04:38:23.373Z,15.73
2022-09-10T04:48:44.850Z,15.76
2022-09-10T04:59:06.558Z,15.74
2022-09-10T05:09:34.100Z,15.82
2022-09-10T05:19:55.831Z,15.88
2022-09-10T05:30:18.714Z,15.85
2022-09-10T05:40:42.733Z,15.85
2022-09-10T05:51:04.182Z,15.81
2022-09-10T06:01:26.145Z,16.00
2022-09-10T06:11:48.519Z,15.90
2022-09-10T06:22:11.147Z,15.99
2022-09-10T06:32:32.628Z,16.04
2022-09-10T06:42:54.684Z,16.17
2022-09-10T06:53:16.729Z,16.32
2022-09-10T07:03:38.231Z,16.32
2022-09-10T07:14:01.371Z,16.41
2022-09-10T07:24:22.874Z,16.48
2022-09-10T07:34:44.353Z,16.60
2022-09-10T07:45:07.171Z,16.82
2022-09-10T07:55:30.492Z,17.07
2022-09-10T08:05:52.066Z,17.18
2022-09-10T08:16:17.861Z,17.07
2022-09-10T08:26:40.115Z,17.06
2022-09-10T08:37:03.272Z,17.25
2022-09-10T08:47:28.080Z,17.37
2022-09-10T08:57:55.523Z,17.52
2022-09-10T09:08:21.834Z,17.68
2022-09-10T09:19:54.367Z,17.75
2022-09-10T09:30:20.141Z,18.18
2022-09-10T09:40:56.275Z,18.38
2022-09-10T09:51:21.650Z,18.54
2022-09-10T10:01:44.492Z,18.55
2022-09-10T10:12:07.171Z,18.74
2022-09-10T10:22:32.614Z,18.79
2022-09-10T10:33:00.000Z,19.19
2022-09-10T10:43:42.300Z,19.27
2022-09-10T10:54:33.815Z,18.91
2022-09-10T11:05:01.197Z,19.09
2022-09-10T11:15:48.986Z,19.01
2022-09-10T11:26:22.745Z,19.64
2022-09-10T11:36:54.801Z,19.52
2022-09-10T11:47:32.331Z,19.78
2022-09-10T11:58:11.567Z,19.81
2022-09-10T12:08:55.925Z,19.67
2022-09-10T12:19:30.649Z,19.96
2022-09-10T12:29:52.098Z,19.68
2022-09-10T12:40:44.637Z,20.17
2022-09-10T12:51:21.611Z,19.89
2022-09-10T13:01:48.887Z,19.80
2022-09-10T13:12:21.095Z,19.49
2022-09-10T13:23:04.481Z,19.45
2022-09-10T13:33:33.398Z,19.69
2022-09-10T13:44:20.388Z,19.89
2022-09-10T13:54:51.383Z,19.63
2022-09-10T14:05:23.107Z,19.69
2022-09-10T14:15:44.832Z,19.72
2022-09-10T14:26:23.493Z,19.54
2022-09-10T14:36:45.104Z,19.67
2022-09-10T14:47:10.121Z,19.75
2022-09-10T14:57:31.684Z,19.56
2022-09-10T15:07:53.198Z,19.79
2022-09-10T15:18:14.970Z,19.80
2022-09-10T15:28:36.502Z,19.73
2022-09-10T15:38:59.607Z,19.74
2022-09-10T15:49:21.078Z,19.88
2022-09-10T15:59:42.600Z,19.63
2022-09-10T16:10:06.199Z,19.67
2022-09-10T16:20:27.714Z,19.80
2022-09-10T16:30:49.682Z,20.45
2022-09-10T16:41:13.569Z,19.48
2022-09-10T16:51:36.128Z,19.22
2022-09-10T17:01:59.523Z,19.20
2022-09-10T17:12:21.105Z,19.01
2022-09-10T17:22:42.810Z,18.89
2022-09-10T17:33:06.008Z,18.75
2022-09-10T17:43:29.922Z,18.66
2022-09-10T17:53:53.664Z,18.53
2022-09-10T18:04:15.706Z,18.37
2022-09-10T18:14:38.439Z,18.26
2022-09-10T18:24:59.909Z,18.03
2022-09-10T18:35:21.461Z,17.96
2022-09-10T18:45:42.974Z,17.82
2022-09-10T18:56:10.074Z,17.73
2022-09-10T19:06:35.285Z,17.62
2022-09-10T19:16:58.186Z,17.65
2022-09-10T19:27:19.660Z,17.50
2022-09-10T19:37:41.206Z,17.50
2022-09-10T19:48:03.256Z,17.35
2022-09-10T19:58:24.731Z,17.19
2022-09-10T20:08:50.252Z,17.21
2022-09-10T20:19:21.948Z,17.21
2022-09-10T20:29:43.916Z,16.99
2022-09-10T20:40:05.910Z,16.87
2022-09-10T20:50:27.496Z,16.82
2022-09-10T21:00:48.951Z,16.72
2022-09-10T21:11:19.349Z,16.60
2022-09-10T21:21:42.070Z,16.49
2022-09-10T21:32:03.576Z,16.44
2022-09-10T21:42:25.094Z,16.25
2022-09-10T21:52:46.571Z,16.23
2022-09-10T22:03:08.092Z,16.14
2022-09-10T22:13:29.932Z,16.03
2022-09-10T22:23:51.791Z,15.98
2022-09-10T22:34:15.443Z,15.82
2022-09-10T22:44:36.904Z,15.88
2022-09-10T22:54:58.363Z,15.82
2022-09-10T23:05:20.047Z,15.64
2022-09-10T23:15:41.695Z,15.65
2022-09-10T23:26:05.704Z,15.67
2022-09-10T23:36:29.932Z,15.60
2022-09-10T23:46:51.963Z,15.41
2022-09-10T23:57:13.424Z,15.19
